createdAt,value
2022-12-23T00:03:18.187Z,0.63
2022-12-23T00:08:30.441Z,0.71
2022-12-23T00:13:46.377Z,0.80
2022-12-23T00:18:45.221Z,0.86
2022-12-23T00:23:47.134Z,0.67
2022-12-23T00:28:46.689Z,0.61
2022-12-23T00:33:48.197Z,0.77
2022-12-23T00:39:06.263Z,0.91
2022-12-23T00:44:06.184Z,1.00
2022-12-23T00:49:22.623Z,1.10
2022-12-23T00:54:23.030Z,1.18
2022-12-23T00:59:24.204Z,1.02
2022-12-23T01:04:40.643Z,0.97
2022-12-23T01:09:40.967Z,1.02
2022-12-23T01:14:40.348Z,1.04
2022-12-23T01:19:39.581Z,1.09
2022-12-23T01:24:38.421Z,1.18
2022-12-23T01:29:38.707Z,1.17
2022-12-23T01:34:37.939Z,1.12
2022-12-23T01:39:36.892Z,1.16
2022-12-23T01:44:55.973Z,1.24
2022-12-23T01:49:58.314Z,1.25
2022-12-23T01:54:58.501Z,1.30
2022-12-23T02:00:15.895Z,1.26
2022-12-23T02:05:17.994Z,1.20
2022-12-23T02:10:17.243Z,1.22
2022-12-23T02:15:47.482Z,1.30
2022-12-23T02:21:13.732Z,1.39
2022-12-23T02:26:43.868Z,1.39
2022-12-23T02:31:56.902Z,1.41
2022-12-23T02:37:02.315Z,1.41
2022-12-23T02:42:09.352Z,1.37
2022-12-23T02:47:13.911Z,1.32
2022-12-23T02:52:15.469Z,1.22
2022-12-23T02:57:18.130Z,1.24
2022-12-23T03:02:18.860Z,1.23
2022-12-23T03:07:21.941Z,1.17
2022-12-23T03:12:29.516Z,1.15
2022-12-23T03:17:56.654Z,1.22
2022-12-23T03:23:04.900Z,1.21
2022-12-23T03:28:12.334Z,1.21
2022-12-23T03:33:16.725Z,1.19
2022-12-23T03:38:18.786Z,1.17
2022-12-23T03:43:23.536Z,1.17
2022-12-23T03:48:28.284Z,1.19
2022-12-23T03:53:31.858Z,1.17
2022-12-23T03:58:39.137Z,1.22
2022-12-23T04:03:48.143Z,1.27
2022-12-23T04:08:49.888Z,1.29
2022-12-23T04:13:49.616Z,1.29
2022-12-23T04:18:49.895Z,1.29
2022-12-23T04:23:48.829Z,1.25
2022-12-23T04:28:48.041Z,1.25
2022-12-23T04:33:47.028Z,1.12
2022-12-23T04:38:47.223Z,1.11
2022-12-23T04:43:52.569Z,1.19
2022-12-23T04:48:52.109Z,1.21
2022-12-23T04:53:52.395Z,1.17
2022-12-23T04:58:51.200Z,1.19
2022-12-23T05:03:50.304Z,1.22
2022-12-23T05:08:49.104Z,1.30
2022-12-23T05:13:49.216Z,1.26
2022-12-23T05:18:48.200Z,1.26
2022-12-23T05:23:46.952Z,1.30
2022-12-23T05:28:46.441Z,1.35
2022-12-23T05:33:46.812Z,1.34
2022-12-23T05:38:45.713Z,1.30
2022-12-23T05:43:44.849Z,1.36
2022-12-23T05:48:43.700Z,1.36
2022-12-23T05:53:43.886Z,1.37
2022-12-23T05:58:46.018Z,1.54
2022-12-23T06:03:45.418Z,1.40
2022-12-23T06:08:45.846Z,1.45
2022-12-23T06:13:44.685Z,1.40
2022-12-23T06:18:46.612Z,1.40
2022-12-23T06:23:47.478Z,1.36
2022-12-23T06:28:46.436Z,1.38
2022-12-23T06:33:45.446Z,1.40
2022-12-23T06:38:44.238Z,1.38
2022-12-23T06:43:44.409Z,1.30
2022-12-23T06:48:43.128Z,1.47
2022-12-23T06:53:42.504Z,1.62
2022-12-23T06:58:41.220Z,1.48
2022-12-23T07:03:41.505Z,1.57
2022-12-23T07:08:41.536Z,1.67
2022-12-23T07:13:40.259Z,1.75
2022-12-23T07:18:39.044Z,1.84
2022-12-23T07:23:39.399Z,1.93
2022-12-23T07:28:38.440Z,1.95
2022-12-23T07:33:37.272Z,2.11
2022-12-23T07:38:36.102Z,2.34
2022-12-23T07:43:36.361Z,2.54
2022-12-23T07:48:35.114Z,2.72
2022-12-23T07:53:33.801Z,3.85
2022-12-23T07:58:37.894Z,4.17
2022-12-23T08:03:38.265Z,3.56
2022-12-23T08:08:37.231Z,3.20
2022-12-23T08:13:39.307Z,2.85
2022-12-23T08:18:39.937Z,2.89
2022-12-23T08:23:41.611Z,3.03
2022-12-23T08:28:43.754Z,3.05
2022-12-23T08:33:44.409Z,3.18
2022-12-23T08:38:43.631Z,3.04
2022-12-23T08:43:45.952Z,3.17
2022-12-23T08:48:49.515Z,3.41
2022-12-23T08:53:51.558Z,3.40
2022-12-23T08:59:00.141Z,3.28
2022-12-23T09:04:08.110Z,3.56
2022-12-23T09:09:07.437Z,3.97
2022-12-23T09:14:08.744Z,3.86
2022-12-23T09:19:08.101Z,4.13
2022-12-23T09:24:10.108Z,4.56
2022-12-23T09:29:12.823Z,4.25
2022-12-23T09:34:12.543Z,4.64
2022-12-23T09:39:12.722Z,4.79
2022-12-23T09:44:33.510Z,5.30
2022-12-23T09:49:33.622Z,5.40
2022-12-23T09:54:41.536Z,5.53
2022-12-23T09:59:56.664Z,5.62
2022-12-23T10:05:04.330Z,5.45
2022-12-23T10:10:13.319Z,5.31
2022-12-23T10:15:23.039Z,5.18
2022-12-23T10:20:33.089Z,5.35
2022-12-23T10:25:36.578Z,5.82
2022-12-23T10:31:05.687Z,5.81
2022-12-23T10:36:10.807Z,6.35
2022-12-23T10:41:23.038Z,6.48
2022-12-23T10:46:43.171Z,6.29
2022-12-23T10:51:48.315Z,6.44
2022-12-23T10:56:47.395Z,6.33
2022-12-23T11:01:54.373Z,6.33
2022-12-23T11:07:18.034Z,6.45
2022-12-23T11:12:15.032Z,6.37
2022-12-23T11:17:23.577Z,6.27
2022-12-23T11:22:27.919Z,6.50
2022-12-23T11:27:27.011Z,6.31
2022-12-23T11:32:29.728Z,6.04
2022-12-23T11:37:36.323Z,6.12
2022-12-23T11:42:36.347Z,6.31
2022-12-23T11:47:40.291Z,6.33
2022-12-23T11:52:54.231Z,6.46
2022-12-23T11:57:54.002Z,6.24
2022-12-23T12:02:57.708Z,6.48
2022-12-23T12:08:01.608Z,6.59
2022-12-23T12:13:05.086Z,6.72
2022-12-23T12:18:08.216Z,6.83
2022-12-23T12:23:14.596Z,6.81
2022-12-23T12:28:19.980Z,7.21
2022-12-23T12:33:24.913Z,7.09
2022-12-23T12:38:28.501Z,7.25
2022-12-23T12:43:33.683Z,7.36
2022-12-23T12:48:42.388Z,7.36
2022-12-23T12:53:56.205Z,7.13
2022-12-23T12:58:57.865Z,7.15
2022-12-23T13:04:26.317Z,7.10
2022-12-23T13:09:39.339Z,7.05
2022-12-23T13:14:50.178Z,7.26
2022-12-23T13:19:56.201Z,7.01
2022-12-23T13:25:02.921Z,6.96
2022-12-23T13:30:06.490Z,6.99
2022-12-23T13:35:09.977Z,7.28
2022-12-23T13:40:26.218Z,7.06
2022-12-23T13:45:57.515Z,7.09
2022-12-23T13:51:03.056Z,7.16
2022-12-23T13:56:19.466Z,7.07
2022-12-23T14:01:37.341Z,7.06
2022-12-23T14:06:58.641Z,7.00
2022-12-23T14:12:13.924Z,6.82
2022-12-23T14:17:24.383Z,6.71
2022-12-23T14:22:38.607Z,6.71
2022-12-23T14:27:53.662Z,6.76
2022-12-23T14:32:58.259Z,6.77
2022-12-23T14:38:30.064Z,6.83
2022-12-23T14:44:02.220Z,6.82
2022-12-23T14:49:38.454Z,6.78
2022-12-23T14:55:06.071Z,6.80
2022-12-23T15:00:11.671Z,6.82
2022-12-23T15:05:11.149Z,6.70
2022-12-23T15:10:20.085Z,6.68
2022-12-23T15:15:23.686Z,6.66
2022-12-23T15:20:27.457Z,6.60
2022-12-23T15:25:28.917Z,6.60
2022-12-23T15:30:34.165Z,6.67
2022-12-23T15:35:37.010Z,6.67
2022-12-23T15:40:38.003Z,6.70
2022-12-23T15:45:42.584Z,6.71
2022-12-23T15:50:45.743Z,6.63
2022-12-23T15:55:47.598Z,6.69
2022-12-23T16:00:55.714Z,6.70
2022-12-23T16:05:54.847Z,6.61
2022-12-23T16:11:08.772Z,6.61
2022-12-23T16:16:34.006Z,6.51
2022-12-23T16:21:37.866Z,6.52
2022-12-23T16:26:49.140Z,6.53
2022-12-23T16:32:01.774Z,6.57
2022-12-23T16:37:03.391Z,6.69
2022-12-23T16:42:02.196Z,6.48
2022-12-23T16:47:08.283Z,6.49
2022-12-23T16:52:11.404Z,6.53
2022-12-23T16:57:14.118Z,6.50
2022-12-23T17:02:22.907Z,6.49
2022-12-23T17:07:26.551Z,6.47
2022-12-23T17:12:26.282Z,6.48
2022-12-23T17:17:26.641Z,6.47
2022-12-23T17:22:29.496Z,6.48
2022-12-23T17:27:28.371Z,6.47
2022-12-23T17:32:29.256Z,6.39
2022-12-23T17:37:31.299Z,6.37
2022-12-23T17:42:39.189Z,6.31
2022-12-23T17:47:39.491Z,6.16
2022-12-23T17:52:38.579Z,6.04
2022-12-23T17:57:37.399Z,6.01
2022-12-23T18:02:36.271Z,5.95
2022-12-23T18:07:38.454Z,5.91
2022-12-23T18:12:40.400Z,5.82
2022-12-23T18:17:39.435Z,5.76
2022-12-23T18:22:41.517Z,5.69
2022-12-23T18:27:40.315Z,5.62
2022-12-23T18:32:42.046Z,5.54
2022-12-23T18:37:43.599Z,5.47
2022-12-23T18:42:42.437Z,5.43
2022-12-23T18:47:43.980Z,5.38
2022-12-23T18:52:46.632Z,5.36
2022-12-23T18:57:45.477Z,5.33
2022-12-23T19:02:44.813Z,5.29
2022-12-23T19:07:45.477Z,5.21
2022-12-23T19:12:44.208Z,5.16
2022-12-23T19:17:43.025Z,5.12
2022-12-23T19:22:42.392Z,5.08
2022-12-23T19:27:47.729Z,5.05
2022-12-23T19:32:46.874Z,5.04
2022-12-23T19:37:45.665Z,5.02
2022-12-23T19:42:46.346Z,4.98
2022-12-23T19:47:46.822Z,4.77
2022-12-23T19:52:50.227Z,4.72
2022-12-23T19:57:49.064Z,4.69
2022-12-23T20:02:55.109Z,4.65
2022-12-23T20:07:58.768Z,4.64
2022-12-23T20:12:57.666Z,4.59
2022-12-23T20:18:00.674Z,4.53
2022-12-23T20:22:59.650Z,4.82
2022-12-23T20:27:58.461Z,4.79
2022-12-23T20:32:59.410Z,4.66
2022-12-23T20:37:58.208Z,4.56
2022-12-23T20:42:58.397Z,4.47
2022-12-23T20:47:58.606Z,4.42
2022-12-23T20:52:57.586Z,4.41
2022-12-23T20:57:56.554Z,4.40
2022-12-23T21:03:08.385Z,4.39
2022-12-23T21:08:10.613Z,4.37
2022-12-23T21:13:11.136Z,4.36
2022-12-23T21:18:10.037Z,4.34
2022-12-23T21:23:10.193Z,4.33
2022-12-23T21:28:08.917Z,4.32
2022-12-23T21:33:07.768Z,4.31
2022-12-23T21:38:06.673Z,4.28
2022-12-23T21:43:08.835Z,4.25
2022-12-23T21:48:10.195Z,4.24
2022-12-23T21:53:09.011Z,4.20
2022-12-23T21:58:09.714Z,4.16
2022-12-23T22:03:10.796Z,4.13
2022-12-23T22:08:11.994Z,4.11
2022-12-23T22:13:12.840Z,4.08
2022-12-23T22:18:11.779Z,3.96
2022-12-23T22:23:10.896Z,3.90
2022-12-23T22:28:09.866Z,3.89
2022-12-23T22:33:10.475Z,3.90
2022-12-23T22:38:11.223Z,3.92
2022-12-23T22:43:10.029Z,3.91
2022-12-23T22:48:10.283Z,3.88
2022-12-23T22:53:09.364Z,3.82
2022-12-23T22:58:08.264Z,3.81
2022-12-23T23:03:07.148Z,3.72
2022-12-23T23:08:08.608Z,3.71
2022-12-23T23:13:07.352Z,3.72
2022-12-23T23:18:06.281Z,3.75
2022-12-23T23:23:05.123Z,3.78
2022-12-23T23:28:05.987Z,3.80
2022-12-23T23:33:04.989Z,3.82
2022-12-23T23:38:03.860Z,3.84
2022-12-23T23:43:02.838Z,3.83
2022-12-23T23:48:11.231Z,3.80
2022-12-23T23:53:10.705Z,3.81
2022-12-23T23:58:10.292Z,3.82
